Time;durP1;ratioP1;P1;durP2;ratioP2;P2;SDS_P1;SDS_P2;PMS_P1;PMS_P2;Temp;Humidity;BMP_temperature;BMP_pressure;BME280_temperature;BME280_humidity;BME280_pressure;Samples;Min_cycle;Max_cycle;Signal;HPM_P1;HPM_P2
2024/03/20 00:00:32;;;;;;;27.85;14.95;;;10.60;99.90;;;;;;5043828;28;20033;-70
2024/03/20 00:02:57;;;;;;;39.78;15.38;;;10.70;99.90;;;;;;5039503;28;20127;-70
2024/03/20 00:05:23;;;;;;;23.45;13.75;;;10.70;99.90;;;;;;5041774;28;20029;-70
2024/03/20 00:07:49;;;;;;;27.55;14.70;;;10.70;99.90;;;;;;5043055;28;20051;-70
2024/03/20 00:10:16;;;;;;;30.63;14.52;;;10.70;99.90;;;;;;5039679;28;20083;-70
2024/03/20 00:12:42;;;;;;;26.50;14.52;;;10.70;99.90;;;;;;5028487;28;20053;-70
2024/03/20 00:15:08;;;;;;;29.08;14.32;;;10.70;99.90;;;;;;5038240;28;20604;-70
2024/03/20 00:17:34;;;;;;;25.35;13.27;;;10.70;99.90;;;;;;5044627;28;20060;-70
2024/03/20 00:20:00;;;;;;;27.58;14.20;;;10.70;99.90;;;;;;5041215;28;20072;-70
2024/03/20 00:22:27;;;;;;;27.60;14.27;;;10.80;99.90;;;;;;5040426;28;20569;-70
2024/03/20 00:24:53;;;;;;;27.60;14.57;;;10.80;99.90;;;;;;5041476;28;20095;-70
2024/03/20 00:27:21;;;;;;;27.73;14.80;;;10.90;99.90;;;;;;5040347;28;20037;-70
2024/03/20 00:29:47;;;;;;;23.23;13.40;;;10.80;99.90;;;;;;5037359;28;20038;-69
2024/03/20 00:32:12;;;;;;;26.42;14.80;;;10.80;99.90;;;;;;5038256;28;20037;-69
2024/03/20 00:34:38;;;;;;;28.90;15.25;;;10.80;99.90;;;;;;5038850;28;20017;-70
2024/03/20 00:37:04;;;;;;;27.83;14.93;;;10.90;99.90;;;;;;5042338;28;20385;-69
2024/03/20 00:39:29;;;;;;;27.55;15.52;;;11.00;99.90;;;;;;5027272;28;20659;-69
2024/03/20 00:41:55;;;;;;;29.30;14.25;;;10.90;99.90;;;;;;5038046;28;20460;-70
2024/03/20 00:44:20;;;;;;;29.88;14.15;;;10.90;99.90;;;;;;5045542;28;20033;-70
2024/03/20 00:46:46;;;;;;;24.98;13.80;;;10.90;99.90;;;;;;5033057;28;20017;-69
2024/03/20 00:49:12;;;;;;;30.15;14.82;;;10.90;99.90;;;;;;5040930;28;20095;-70
2024/03/20 00:51:37;;;;;;;31.92;14.73;;;11.00;99.90;;;;;;5043845;28;20112;-69
2024/03/20 00:54:03;;;;;;;26.08;14.40;;;11.00;99.90;;;;;;5041990;28;20457;-70
2024/03/20 00:56:28;;;;;;;30.33;13.50;;;11.10;99.90;;;;;;5039507;28;20062;-69
2024/03/20 00:58:54;;;;;;;28.95;13.60;;;11.10;99.90;;;;;;5042907;28;20102;-70
2024/03/20 01:01:20;;;;;;;34.03;14.07;;;11.10;99.90;;;;;;5044153;28;20040;-70
2024/03/20 01:03:46;;;;;;;36.53;14.13;;;11.10;99.90;;;;;;5040994;28;20029;-69
2024/03/20 01:06:11;;;;;;;29.05;13.65;;;11.20;99.90;;;;;;5039239;28;20045;-70
2024/03/20 01:08:40;;;;;;;26.10;13.15;;;11.20;99.90;;;;;;5039968;28;20196;-69
2024/03/20 01:11:05;;;;;;;31.42;14.82;;;11.30;99.90;;;;;;5040137;28;20167;-69
2024/03/20 01:13:31;;;;;;;28.85;12.75;;;11.40;99.90;;;;;;5030812;28;20817;-69
2024/03/20 01:15:57;;;;;;;28.25;13.35;;;11.40;99.90;;;;;;5045157;28;20383;-70
2024/03/20 01:18:23;;;;;;;27.00;12.73;;;11.50;99.90;;;;;;5043066;28;20029;-70
2024/03/20 01:20:48;;;;;;;29.65;13.02;;;11.50;99.90;;;;;;5046528;28;20048;-70
2024/03/20 01:23:14;;;;;;;29.17;14.20;;;11.60;99.90;;;;;;5037255;28;20056;-70
2024/03/20 01:25:40;;;;;;;26.52;13.98;;;11.60;99.90;;;;;;5039885;28;20033;-70
2024/03/20 01:28:06;;;;;;;34.55;12.88;;;11.60;99.90;;;;;;5030655;28;20502;-69
2024/03/20 01:30:31;;;;;;;31.25;14.23;;;11.60;99.90;;;;;;5042932;28;20098;-70
2024/03/20 01:32:57;;;;;;;30.48;13.18;;;11.60;99.90;;;;;;5044555;28;20059;-70
2024/03/20 01:35:23;;;;;;;30.35;13.65;;;11.70;99.90;;;;;;5041332;28;20033;-70
2024/03/20 01:37:48;;;;;;;26.83;13.98;;;11.70;99.90;;;;;;5029053;28;20027;-70
2024/03/20 01:40:14;;;;;;;26.58;13.20;;;11.70;99.90;;;;;;5042460;28;20060;-70
2024/03/20 01:42:40;;;;;;;24.15;13.23;;;11.70;99.90;;;;;;5044149;28;20037;-70
2024/03/20 01:45:13;;;;;;;36.35;14.13;;;11.80;99.90;;;;;;5042742;28;20047;-70
2024/03/20 01:47:43;;;;;;;27.23;12.55;;;11.80;99.90;;;;;;5018806;28;20029;-70
2024/03/20 01:50:10;;;;;;;35.78;14.23;;;11.80;99.90;;;;;;5048124;28;20040;-70
2024/03/20 01:52:52;;;;;;;28.38;13.80;;;11.80;99.90;;;;;;5039640;28;20025;-70
2024/03/20 01:55:20;;;;;;;30.23;13.85;;;11.80;99.90;;;;;;5039348;28;20590;-71
2024/03/20 01:57:45;;;;;;;;;;;11.90;99.90;;;;;;5049035;28;20112;-70
2024/03/20 02:00:13;;;;;;;28.85;14.30;;;11.90;99.90;;;;;;5040133;28;19978;-70
2024/03/20 02:02:43;;;;;;;32.17;14.27;;;11.90;99.80;;;;;;5036564;28;20037;-70
2024/03/20 02:05:09;;;;;;;31.63;14.23;;;11.90;99.90;;;;;;5038952;28;20756;-70
2024/03/20 02:07:34;;;;;;;26.92;13.25;;;11.90;99.90;;;;;;5039484;28;20029;-70
2024/03/20 02:10:00;;;;;;;28.27;13.40;;;12.00;99.90;;;;;;5027697;28;20162;-69
2024/03/20 02:12:25;;;;;;;26.90;13.35;;;11.90;99.80;;;;;;5040615;28;20040;-70
2024/03/20 02:14:51;;;;;;;29.70;12.98;;;11.90;99.80;;;;;;5041579;28;20039;-70
2024/03/20 02:17:17;;;;;;;32.50;14.07;;;11.90;99.80;;;;;;5038013;28;20033;-70
2024/03/20 02:19:43;;;;;;;36.65;14.15;;;12.00;99.80;;;;;;5041033;28;20029;-70
2024/03/20 02:22:08;;;;;;;27.17;13.45;;;12.00;99.80;;;;;;5044379;28;20028;-70
2024/03/20 02:24:34;;;;;;;27.00;12.60;;;11.90;99.80;;;;;;5023713;28;20034;-70
2024/03/20 02:26:59;;;;;;;26.33;13.05;;;11.90;99.80;;;;;;5044515;28;20066;-70
2024/03/20 02:29:25;;;;;;;26.48;13.48;;;11.90;99.70;;;;;;5025145;28;20030;-70
2024/03/20 02:31:50;;;;;;;36.28;13.85;;;11.90;99.70;;;;;;5040164;28;20089;-70
2024/03/20 02:34:16;;;;;;;25.98;12.68;;;12.00;99.80;;;;;;5041464;28;20037;-70
2024/03/20 02:36:42;;;;;;;25.20;12.43;;;12.00;99.70;;;;;;5044794;28;20040;-70
2024/03/20 02:39:08;;;;;;;31.58;13.05;;;11.90;99.70;;;;;;5041976;28;20029;-70
2024/03/20 02:41:33;;;;;;;34.22;14.23;;;11.90;99.70;;;;;;5036997;28;20051;-70
2024/03/20 02:43:59;;;;;;;30.23;13.75;;;11.90;99.70;;;;;;5038518;28;20033;-70
2024/03/20 02:46:25;;;;;;;28.75;12.05;;;11.90;99.70;;;;;;5038515;28;20026;-70
2024/03/20 02:48:50;;;;;;;31.70;13.73;;;12.00;99.80;;;;;;5042382;28;20404;-70
2024/03/20 02:51:16;;;;;;;29.83;13.60;;;11.90;99.60;;;;;;5042155;28;20037;-70
2024/03/20 02:53:41;;;;;;;33.03;13.88;;;11.90;99.60;;;;;;5037809;28;20048;-70
2024/03/20 02:56:07;;;;;;;35.20;13.50;;;11.90;99.60;;;;;;5038203;28;20029;-70
2024/03/20 02:58:32;;;;;;;30.08;14.75;;;11.90;99.60;;;;;;5036065;28;20124;-70
2024/03/20 03:00:58;;;;;;;29.50;13.05;;;11.90;99.60;;;;;;5041067;28;20607;-70
2024/03/20 03:03:23;;;;;;;28.73;13.48;;;11.90;99.70;;;;;;5036885;28;20037;-70
2024/03/20 03:05:49;;;;;;;31.38;14.27;;;11.80;99.60;;;;;;5024466;28;20525;-70
2024/03/20 03:08:15;;;;;;;34.17;13.93;;;11.90;99.50;;;;;;5037688;28;20092;-70
2024/03/20 03:10:40;;;;;;;25.73;12.88;;;11.80;99.50;;;;;;5040224;28;20393;-70
2024/03/20 03:13:06;;;;;;;26.38;12.10;;;11.80;99.50;;;;;;5037506;28;20025;-69
2024/03/20 03:15:33;;;;;;;30.92;13.68;;;11.80;99.60;;;;;;5040832;28;20045;-70
2024/03/20 03:17:59;;;;;;;28.42;12.90;;;11.80;99.50;;;;;;5042003;28;20702;-69
2024/03/20 03:20:26;;;;;;;23.38;11.82;;;11.80;99.40;;;;;;5035745;28;20068;-70
2024/03/20 03:22:52;;;;;;;27.70;13.23;;;11.80;99.40;;;;;;5044078;28;22090;-70
2024/03/20 03:25:18;;;;;;;32.00;14.38;;;11.80;99.50;;;;;;5045602;28;20021;-70
2024/03/20 03:27:44;;;;;;;27.02;13.35;;;11.70;99.40;;;;;;5039860;28;20037;-70
2024/03/20 03:30:10;;;;;;;28.85;13.43;;;11.70;99.40;;;;;;5033468;28;20025;-70
2024/03/20 03:32:39;;;;;;;26.52;12.10;;;11.70;99.40;;;;;;5034703;28;20060;-71
2024/03/20 03:35:06;;;;;;;31.55;12.60;;;11.70;99.40;;;;;;5039168;28;20489;-71
2024/03/20 03:37:32;;;;;;;24.33;11.98;;;11.80;99.50;;;;;;5049790;28;20040;-70
2024/03/20 03:40:00;;;;;;;30.52;13.10;;;11.70;99.40;;;;;;5037045;28;20049;-70
2024/03/20 03:42:26;;;;;;;26.15;12.43;;;11.70;99.40;;;;;;5040286;28;20545;-70
2024/03/20 03:44:52;;;;;;;30.67;12.55;;;11.70;99.40;;;;;;5039500;28;20529;-70
2024/03/20 03:47:17;;;;;;;26.23;12.32;;;11.80;99.50;;;;;;5036777;28;20056;-70
2024/03/20 03:49:43;;;;;;;25.23;13.35;;;11.70;99.50;;;;;;5039693;28;20147;-69
2024/03/20 03:52:08;;;;;;;34.97;13.18;;;11.70;99.50;;;;;;5025529;28;20032;-70
2024/03/20 03:54:34;;;;;;;33.42;13.55;;;11.70;99.50;;;;;;5038312;28;20145;-70
2024/03/20 03:57:02;;;;;;;25.27;12.00;;;11.70;99.50;;;;;;5032541;28;20079;-70
2024/03/20 03:59:28;;;;;;;30.38;12.30;;;11.70;99.40;;;;;;5024234;28;20037;-70
2024/03/20 04:01:54;;;;;;;27.05;13.13;;;11.70;99.50;;;;;;5039257;28;20087;-69
2024/03/20 04:04:19;;;;;;;29.27;12.60;;;11.70;99.40;;;;;;5040991;28;20087;-69
2024/03/20 04:06:45;;;;;;;26.55;12.50;;;11.70;99.50;;;;;;5037314;28;20029;-70
2024/03/20 04:09:10;;;;;;;29.27;13.32;;;11.70;99.50;;;;;;5033812;28;20060;-69
2024/03/20 04:11:37;;;;;;;29.95;13.25;;;11.70;99.60;;;;;;5033533;28;20033;-70
2024/03/20 04:14:10;;;;;;;26.70;12.73;;;11.60;99.60;;;;;;5038331;28;20037;-70
2024/03/20 04:16:35;;;;;;;26.30;12.25;;;11.60;99.60;;;;;;5040308;28;20040;-70
2024/03/20 04:19:01;;;;;;;30.05;12.57;;;11.70;99.50;;;;;;5034446;28;20067;-70
2024/03/20 04:21:27;;;;;;;35.20;13.50;;;11.70;99.50;;;;;;5040896;28;20436;-70
2024/03/20 04:23:52;;;;;;;33.55;13.98;;;11.70;99.60;;;;;;5038972;28;20045;-70
2024/03/20 04:26:19;;;;;;;28.83;12.20;;;11.70;99.50;;;;;;5034527;28;20068;-70
2024/03/20 04:28:46;;;;;;;26.17;12.32;;;11.70;99.50;;;;;;5040445;28;20032;-70
2024/03/20 04:31:16;;;;;;;33.85;12.85;;;11.70;99.40;;;;;;5037817;28;20026;-70
2024/03/20 04:33:42;;;;;;;25.77;12.73;;;11.70;99.40;;;;;;5034237;28;20037;-70
2024/03/20 04:36:09;;;;;;;24.90;12.65;;;11.70;99.30;;;;;;5042538;28;20029;-70
2024/03/20 04:38:36;;;;;;;24.08;11.77;;;11.70;99.40;;;;;;5022156;28;20077;-70
2024/03/20 04:41:04;;;;;;;27.40;12.57;;;11.70;99.40;;;;;;5040444;28;20033;-70
2024/03/20 04:43:29;;;;;;;24.92;12.13;;;11.70;99.40;;;;;;5039852;28;20033;-70
2024/03/20 04:45:55;;;;;;;23.83;11.65;;;11.70;99.30;;;;;;5040819;28;20032;-70
2024/03/20 04:48:21;;;;;;;25.83;12.85;;;11.70;99.30;;;;;;5028332;28;20033;-70
2024/03/20 04:50:46;;;;;;;27.77;11.48;;;11.70;99.30;;;;;;5043094;28;20774;-70
2024/03/20 04:53:12;;;;;;;26.60;12.48;;;11.70;99.30;;;;;;5039923;28;20056;-70
2024/03/20 04:55:37;;;;;;;25.90;11.75;;;11.70;99.30;;;;;;5047193;28;20033;-70
2024/03/20 04:58:03;;;;;;;27.63;12.40;;;11.70;99.30;;;;;;5041752;28;20405;-70
2024/03/20 05:00:29;;;;;;;28.67;12.45;;;11.70;99.30;;;;;;5041610;28;20052;-70
2024/03/20 05:02:55;;;;;;;29.27;12.75;;;11.70;99.20;;;;;;5039498;28;20065;-70
2024/03/20 05:05:21;;;;;;;25.45;12.27;;;11.80;99.20;;;;;;5036482;28;20029;-69
2024/03/20 05:07:47;;;;;;;30.20;12.65;;;11.70;99.20;;;;;;5041003;28;20025;-70
2024/03/20 05:10:12;;;;;;;23.55;10.82;;;11.80;99.30;;;;;;5044551;28;20022;-70
2024/03/20 05:12:38;;;;;;;27.55;12.30;;;11.70;99.20;;;;;;5043330;28;20048;-71
2024/03/20 05:15:05;;;;;;;24.30;12.82;;;11.80;99.20;;;;;;5046187;28;20044;-70
2024/03/20 05:17:30;;;;;;;31.90;13.20;;;11.80;99.20;;;;;;5025516;28;20527;-70
2024/03/20 05:19:56;;;;;;;32.08;12.55;;;11.70;99.20;;;;;;5043144;28;20041;-70
2024/03/20 05:22:22;;;;;;;25.95;12.38;;;11.70;99.30;;;;;;5037683;28;20951;-70
2024/03/20 05:24:51;;;;;;;24.80;11.52;;;11.70;99.20;;;;;;5039019;28;20053;-66
2024/03/20 05:27:17;;;;;;;25.33;12.45;;;11.80;99.20;;;;;;5038787;28;20506;-66
2024/03/20 05:29:43;;;;;;;25.63;12.63;;;11.80;99.20;;;;;;5041635;28;20033;-66
2024/03/20 05:32:09;;;;;;;28.15;12.25;;;11.80;99.30;;;;;;5039524;28;20040;-66
2024/03/20 05:34:34;;;;;;;24.73;11.88;;;11.80;99.20;;;;;;5039433;28;20025;-66
2024/03/20 05:37:00;;;;;;;24.60;13.05;;;11.80;99.20;;;;;;5020567;28;20112;-66
2024/03/20 05:39:26;;;;;;;22.15;11.88;;;11.80;99.20;;;;;;5036605;28;20107;-66
2024/03/20 05:41:52;;;;;;;24.13;11.95;;;11.80;99.20;;;;;;5044306;28;20060;-66
2024/03/20 05:44:22;;;;;;;24.83;11.52;;;11.80;99.20;;;;;;5018078;28;20037;-66
2024/03/20 05:46:50;;;;;;;27.17;13.63;;;11.80;99.20;;;;;;5016644;28;20029;-66
2024/03/20 05:49:17;;;;;;;26.45;12.52;;;11.80;99.30;;;;;;5020228;28;20028;-66
2024/03/20 05:51:42;;;;;;;29.77;12.77;;;11.80;99.30;;;;;;5040462;28;20036;-66
2024/03/20 05:54:08;;;;;;;25.40;11.80;;;11.90;99.30;;;;;;5040517;28;20060;-66
2024/03/20 05:56:34;;;;;;;23.15;11.85;;;11.90;99.20;;;;;;5038760;28;20026;-66
2024/03/20 05:59:00;;;;;;;26.17;11.77;;;11.90;99.30;;;;;;5045160;28;20447;-66
2024/03/20 06:01:26;;;;;;;25.10;12.52;;;11.80;99.20;;;;;;5043538;28;20029;-66
2024/03/20 06:03:52;;;;;;;23.60;11.52;;;11.80;99.20;;;;;;5040701;28;20048;-66
2024/03/20 06:06:18;;;;;;;27.80;12.63;;;11.80;99.30;;;;;;5040262;28;20635;-66
2024/03/20 06:08:43;;;;;;;28.90;12.07;;;11.90;99.30;;;;;;5042333;28;20637;-66
2024/03/20 06:11:09;;;;;;;27.23;12.25;;;11.80;99.30;;;;;;5040184;28;20029;-66
2024/03/20 06:13:35;;;;;;;24.30;11.23;;;11.70;99.30;;;;;;5040343;28;20166;-66
2024/03/20 06:16:00;;;;;;;23.10;11.18;;;11.80;99.30;;;;;;5039649;28;20036;-66
2024/03/20 06:18:26;;;;;;;25.40;12.07;;;11.80;99.40;;;;;;5024111;28;20033;-65
2024/03/20 06:20:51;;;;;;;25.83;12.13;;;11.80;99.30;;;;;;5036903;28;20609;-65
2024/03/20 06:23:17;;;;;;;25.05;11.82;;;11.80;99.30;;;;;;5038851;28;20064;-65
2024/03/20 06:25:43;;;;;;;24.80;11.82;;;11.80;99.30;;;;;;5037587;28;20037;-65
2024/03/20 06:28:08;;;;;;;23.63;11.55;;;11.80;99.30;;;;;;5041470;28;20029;-65
2024/03/20 06:30:34;;;;;;;24.88;10.90;;;11.80;99.30;;;;;;5041952;28;20453;-65
2024/03/20 06:33:01;;;;;;;22.92;11.95;;;11.80;99.30;;;;;;5040669;28;20032;-65
2024/03/20 06:35:26;;;;;;;25.83;11.32;;;11.90;99.30;;;;;;5037022;28;20029;-65
2024/03/20 06:37:54;;;;;;;28.63;12.27;;;11.90;99.30;;;;;;5040686;28;21736;-65
2024/03/20 06:40:19;;;;;;;28.08;11.70;;;11.90;99.30;;;;;;5041029;28;20044;-65
2024/03/20 06:42:45;;;;;;;20.30;7.03;;;11.90;99.30;;;;;;5026970;28;20029;-65
2024/03/20 06:45:11;;;;;;;25.10;11.80;;;11.90;99.30;;;;;;5039756;28;20521;-65
2024/03/20 06:47:36;;;;;;;29.30;12.00;;;12.00;99.40;;;;;;5019386;28;20038;-65
2024/03/20 06:50:02;;;;;;;26.15;11.63;;;12.00;99.40;;;;;;5043089;28;20048;-65
2024/03/20 06:52:34;;;;;;;23.15;11.57;;;12.00;99.30;;;;;;5034676;28;20021;-65
2024/03/20 06:55:00;;;;;;;28.60;11.23;;;12.10;99.30;;;;;;5032535;28;20107;-65
2024/03/20 06:57:25;;;;;;;24.98;12.48;;;12.10;99.30;;;;;;5039835;28;20062;-65
2024/03/20 06:59:51;;;;;;;28.27;11.68;;;12.10;99.20;;;;;;5022014;28;20410;-65
2024/03/20 07:02:16;;;;;;;24.80;11.40;;;12.10;99.20;;;;;;5035332;28;20561;-65
2024/03/20 07:04:42;;;;;;;24.65;11.27;;;12.30;99.30;;;;;;5038071;28;20025;-65
2024/03/20 07:07:11;;;;;;;27.00;12.10;;;12.20;99.20;;;;;;5037956;28;20033;-65
2024/03/20 07:09:37;;;;;;;25.98;11.95;;;12.20;99.20;;;;;;5041468;28;20029;-65
2024/03/20 07:12:03;;;;;;;20.65;10.60;;;12.20;99.20;;;;;;5032398;28;20088;-65
2024/03/20 07:14:30;;;;;;;28.25;11.63;;;12.30;99.20;;;;;;5035884;28;20033;-65
2024/03/20 07:16:56;;;;;;;24.30;10.23;;;12.30;99.20;;;;;;5038293;28;20098;-65
2024/03/20 07:19:22;;;;;;;22.63;10.68;;;12.30;99.10;;;;;;5024514;28;20028;-65
2024/03/20 07:21:48;;;;;;;22.25;10.13;;;12.40;99.10;;;;;;5041999;28;20033;-65
2024/03/20 07:24:15;;;;;;;21.60;11.25;;;12.40;99.10;;;;;;5043315;28;20414;-65
2024/03/20 07:26:41;;;;;;;22.25;10.98;;;12.40;99.00;;;;;;5041277;28;20033;-65
2024/03/20 07:29:09;;;;;;;30.73;11.40;;;12.50;99.00;;;;;;5039782;28;20524;-65
2024/03/20 07:31:38;;;;;;;28.85;11.98;;;12.60;99.00;;;;;;5034550;28;20037;-65
2024/03/20 07:34:05;;;;;;;24.77;10.63;;;12.60;98.90;;;;;;5041966;28;20053;-67
2024/03/20 07:36:33;;;;;;;25.63;11.13;;;12.70;98.80;;;;;;5037024;28;20033;-65
2024/03/20 07:39:00;;;;;;;22.20;11.00;;;12.80;98.80;;;;;;5021679;28;20044;-65
2024/03/20 07:41:26;;;;;;;23.38;10.35;;;12.90;98.70;;;;;;5038693;28;20120;-65
2024/03/20 07:43:51;;;;;;;20.85;10.35;;;13.00;98.70;;;;;;5034461;28;20120;-65
2024/03/20 07:46:17;;;;;;;25.02;11.10;;;13.00;98.60;;;;;;5021733;28;20029;-65
2024/03/20 07:48:46;;;;;;;18.60;9.77;;;13.10;98.50;;;;;;5022318;28;21688;-65
2024/03/20 07:51:18;;;;;;;26.88;10.02;;;13.20;98.50;;;;;;5036201;28;20037;-64
2024/03/20 07:53:44;;;;;;;21.98;10.45;;;13.20;98.40;;;;;;5038958;28;20102;-65
2024/03/20 07:56:10;;;;;;;26.33;10.73;;;13.30;98.50;;;;;;5023594;28;20032;-65
2024/03/20 07:58:37;;;;;;;27.17;11.63;;;13.40;98.30;;;;;;5041133;28;20021;-65
2024/03/20 08:01:04;;;;;;;25.58;10.15;;;13.40;98.20;;;;;;5039039;28;20119;-64
2024/03/20 08:03:30;;;;;;;18.70;9.82;;;13.40;98.20;;;;;;5034950;28;20065;-65
2024/03/20 08:05:56;;;;;;;24.63;8.80;;;13.50;98.20;;;;;;5026481;28;20086;-64
2024/03/20 08:08:21;;;;;;;22.63;9.90;;;13.60;98.10;;;;;;5037997;28;20037;-65
2024/03/20 08:10:47;;;;;;;23.55;10.00;;;13.60;97.80;;;;;;5034292;28;20029;-64
2024/03/20 08:13:14;;;;;;;25.60;10.07;;;13.60;97.80;;;;;;5037904;28;20032;-64
2024/03/20 08:15:39;;;;;;;20.77;10.75;;;13.80;98.00;;;;;;5044580;28;20041;-65
2024/03/20 08:18:06;;;;;;;20.15;9.65;;;13.80;97.80;;;;;;5037920;28;20034;-65
2024/03/20 08:20:33;;;;;;;19.88;9.57;;;13.90;97.80;;;;;;5036983;28;20037;-65
2024/03/20 08:23:01;;;;;;;21.27;8.90;;;14.00;97.50;;;;;;5038633;28;20379;-65
2024/03/20 08:25:27;;;;;;;18.83;8.93;;;14.10;97.50;;;;;;5041012;28;20036;-65
2024/03/20 08:27:52;;;;;;;15.57;8.82;;;14.20;97.50;;;;;;5042840;28;20041;-65
2024/03/20 08:30:18;;;;;;;19.42;9.48;;;14.30;97.60;;;;;;5027100;28;20033;-65
2024/03/20 08:32:43;;;;;;;18.30;7.90;;;14.40;97.70;;;;;;5038512;28;20638;-65
2024/03/20 08:35:12;;;;;;;19.27;8.45;;;14.50;96.90;;;;;;5043451;28;20036;-65
2024/03/20 08:37:39;;;;;;;16.38;8.48;;;14.60;96.80;;;;;;5046591;28;20108;-66
2024/03/20 08:40:06;;;;;;;17.60;8.57;;;14.60;96.70;;;;;;5042314;28;20445;-65
2024/03/20 08:42:31;;;;;;;18.77;9.30;;;14.70;96.70;;;;;;5034835;28;20036;-65
2024/03/20 08:44:59;;;;;;;17.65;9.05;;;14.70;96.60;;;;;;5043140;28;20045;-65
2024/03/20 08:47:25;;;;;;;18.00;8.65;;;14.70;96.70;;;;;;5026567;28;20022;-65
2024/03/20 08:49:51;;;;;;;21.95;8.93;;;14.80;96.70;;;;;;5047728;28;20035;-65
2024/03/20 08:52:16;;;;;;;16.83;8.35;;;14.80;96.90;;;;;;5045096;28;20024;-65
2024/03/20 08:54:43;;;;;;;22.50;8.55;;;15.00;96.70;;;;;;5044759;28;20505;-65
2024/03/20 08:57:13;;;;;;;17.40;8.55;;;15.10;96.70;;;;;;5045231;28;20033;-65
2024/03/20 08:59:38;;;;;;;18.85;8.68;;;15.10;96.30;;;;;;5028315;28;20033;-65
2024/03/20 09:02:04;;;;;;;27.90;9.07;;;15.10;96.40;;;;;;5030808;28;20114;-65
2024/03/20 09:04:30;;;;;;;16.65;8.60;;;15.10;96.40;;;;;;5035295;28;20168;-65
2024/03/20 09:06:55;;;;;;;20.15;8.27;;;15.20;96.40;;;;;;5044216;28;20060;-65
2024/03/20 09:09:22;;;;;;;14.30;7.85;;;15.30;96.30;;;;;;5039681;28;20022;-65
2024/03/20 09:11:47;;;;;;;16.67;7.63;;;15.40;95.90;;;;;;5038309;28;20036;-64
2024/03/20 09:14:13;;;;;;;16.27;8.48;;;15.40;95.80;;;;;;5041707;28;20025;-65
2024/03/20 09:16:39;;;;;;;16.50;8.60;;;15.50;95.70;;;;;;5037984;28;20045;-65
2024/03/20 09:19:05;;;;;;;20.42;8.20;;;15.60;95.80;;;;;;5042569;28;20072;-65
2024/03/20 09:21:34;;;;;;;16.42;7.95;;;15.50;95.50;;;;;;5041460;28;20053;-65
2024/03/20 09:24:00;;;;;;;13.75;7.35;;;15.70;95.70;;;;;;5043063;28;20043;-65
2024/03/20 09:26:26;;;;;;;17.10;8.45;;;15.70;95.50;;;;;;5039038;28;20033;-65
2024/03/20 09:28:52;;;;;;;18.05;8.15;;;15.80;95.40;;;;;;5038747;28;20044;-65
2024/03/20 09:31:17;;;;;;;17.52;7.38;;;15.80;95.70;;;;;;5038602;28;20029;-65
2024/03/20 09:33:43;;;;;;;19.15;8.40;;;15.80;95.40;;;;;;5038927;28;20032;-65
2024/03/20 09:36:08;;;;;;;15.05;7.82;;;15.90;95.50;;;;;;5040541;28;20120;-65
2024/03/20 09:38:34;;;;;;;14.48;7.63;;;16.00;95.60;;;;;;5040336;28;20394;-65
2024/03/20 09:41:00;;;;;;;25.27;8.18;;;16.10;95.10;;;;;;5044809;28;20556;-65
2024/03/20 09:43:26;;;;;;;15.85;7.57;;;16.10;95.10;;;;;;5045204;28;20032;-65
2024/03/20 09:45:54;;;;;;;12.70;6.90;;;16.10;95.00;;;;;;5043140;28;20694;-65
2024/03/20 09:48:20;;;;;;;;;;;16.40;95.50;;;;;;5040504;28;20041;-65
2024/03/20 09:50:45;;;;;;;10.57;6.47;;;16.60;95.20;;;;;;5037574;28;19913;-65
2024/03/20 09:53:11;;;;;;;11.93;6.03;;;16.70;94.80;;;;;;5036191;28;20025;-65
2024/03/20 09:55:41;;;;;;;15.35;6.50;;;16.80;94.60;;;;;;5039646;28;20116;-65
2024/03/20 09:58:13;;;;;;;12.43;6.20;;;16.90;94.00;;;;;;5042259;28;20112;-65
2024/03/20 10:00:38;;;;;;;15.30;5.35;;;16.90;93.90;;;;;;5040958;28;20172;-65
2024/03/20 10:03:05;;;;;;;13.65;5.70;;;17.00;94.10;;;;;;5044719;28;20703;-65
2024/03/20 10:05:31;;;;;;;10.83;6.10;;;17.00;94.20;;;;;;5046058;28;20433;-65
2024/03/20 10:07:57;;;;;;;10.00;5.28;;;17.10;94.00;;;;;;5040688;28;20267;-65
2024/03/20 10:10:23;;;;;;;10.77;5.72;;;17.10;93.70;;;;;;5043140;28;20473;-65
2024/03/20 10:12:51;;;;;;;18.27;7.07;;;17.00;93.40;;;;;;5042370;28;20037;-65
2024/03/20 10:15:23;;;;;;;15.60;5.82;;;17.10;93.60;;;;;;5040376;28;20077;-65
2024/03/20 10:17:49;;;;;;;9.57;5.15;;;17.00;93.50;;;;;;5044187;28;20262;-63
2024/03/20 10:20:17;;;;;;;14.50;6.15;;;17.10;93.90;;;;;;5040214;28;20561;-65
2024/03/20 10:22:46;;;;;;;12.93;6.03;;;17.30;94.00;;;;;;5044552;28;20190;-65
2024/03/20 10:25:14;;;;;;;13.63;6.60;;;17.50;94.10;;;;;;5043705;28;20620;-66
2024/03/20 10:27:40;;;;;;;11.75;5.95;;;17.70;93.90;;;;;;5030348;28;20069;-66
2024/03/20 10:30:16;;;;;;;13.70;5.53;;;17.80;93.80;;;;;;5039586;28;20044;-65
2024/03/20 10:32:54;;;;;;;9.65;4.55;;;18.00;93.20;;;;;;5045844;28;20033;-66
2024/03/20 10:35:23;;;;;;;11.98;5.80;;;18.10;92.80;;;;;;5042740;28;20314;-66
2024/03/20 10:37:49;;;;;;;11.15;4.82;;;18.20;92.80;;;;;;5039649;28;20470;-66
2024/03/20 10:40:19;;;;;;;11.48;5.68;;;18.10;92.30;;;;;;5045046;28;20036;-66
2024/03/20 10:42:47;;;;;;;10.80;4.88;;;18.10;92.50;;;;;;5043729;28;20367;-66
2024/03/20 10:45:13;;;;;;;9.00;5.07;;;18.20;92.40;;;;;;5036076;28;20029;-65
2024/03/20 10:47:47;;;;;;;9.00;5.30;;;18.40;92.70;;;;;;5039007;28;20302;-66
2024/03/20 10:50:13;;;;;;;11.27;5.85;;;18.70;93.10;;;;;;5040494;28;20040;-67
2024/03/20 10:52:41;;;;;;;10.77;5.90;;;18.90;93.00;;;;;;5039397;28;20036;-66
2024/03/20 10:55:10;;;;;;;10.50;5.60;;;18.90;92.70;;;;;;5044272;28;20033;-66
2024/03/20 10:57:37;;;;;;;11.82;5.90;;;19.50;93.20;;;;;;5041957;28;20064;-66
2024/03/20 11:00:09;;;;;;;9.90;5.43;;;19.80;93.50;;;;;;5025792;28;20037;-66
2024/03/20 11:02:37;;;;;;;10.23;5.53;;;20.20;92.60;;;;;;5034427;28;20402;-66
2024/03/20 11:05:03;;;;;;;14.00;6.07;;;20.50;91.80;;;;;;5040444;28;20044;-66
2024/03/20 11:07:28;;;;;;;10.30;5.78;;;20.70;92.00;;;;;;5037308;28;20036;-66
2024/03/20 11:09:56;;;;;;;11.25;5.60;;;21.20;91.80;;;;;;5040014;28;20083;-66
2024/03/20 11:12:39;;;;;;;10.88;5.05;;;21.00;91.20;;;;;;5037926;28;20030;-66
2024/03/20 11:15:06;;;;;;;15.00;6.30;;;21.30;91.20;;;;;;5033617;28;20043;-66
2024/03/20 11:17:38;;;;;;;8.48;4.90;;;21.50;90.90;;;;;;5028570;28;20037;-66
2024/03/20 11:20:33;;;;;;;14.88;5.05;;;21.50;90.00;;;;;;5024813;28;20148;-66
2024/03/20 11:23:06;;;;;;;11.70;5.18;;;21.50;89.10;;;;;;5035721;28;20071;-66
2024/03/20 11:25:35;;;;;;;10.70;5.70;;;21.90;89.40;;;;;;5041049;28;20128;-66
2024/03/20 11:28:02;;;;;;;7.30;4.72;;;22.30;89.10;;;;;;5045020;28;20052;-67
2024/03/20 11:30:27;;;;;;;14.02;5.85;;;22.00;88.90;;;;;;5024455;28;20052;-66
2024/03/20 11:32:53;;;;;;;10.10;5.15;;;22.20;90.00;;;;;;5046185;28;20666;-66
2024/03/20 11:35:19;;;;;;;13.10;5.75;;;22.60;88.30;;;;;;5025760;28;20029;-66
2024/03/20 11:37:46;;;;;;;11.63;5.97;;;22.40;88.80;;;;;;5039120;28;20079;-66
2024/03/20 11:40:13;;;;;;;9.87;4.83;;;22.60;88.40;;;;;;5023447;28;20060;-66
2024/03/20 11:42:38;;;;;;;11.68;5.32;;;22.70;87.50;;;;;;5044521;28;20532;-66
2024/03/20 11:45:08;;;;;;;10.30;5.78;;;22.80;88.40;;;;;;5026285;28;20029;-66
2024/03/20 11:47:34;;;;;;;12.10;6.18;;;23.30;87.20;;;;;;5039646;28;20109;-66
2024/03/20 11:49:59;;;;;;;9.63;5.80;;;23.50;85.60;;;;;;5043442;28;20588;-66
2024/03/20 11:52:25;;;;;;;12.63;6.00;;;23.80;84.20;;;;;;5037534;28;20017;-66
2024/03/20 11:54:52;;;;;;;9.90;5.53;;;23.80;83.90;;;;;;5040602;28;20102;-67
2024/03/20 11:57:19;;;;;;;9.73;6.28;;;23.90;83.60;;;;;;5041878;28;20025;-67
2024/03/20 11:59:52;;;;;;;9.73;6.03;;;24.10;87.10;;;;;;5043118;28;20039;-66
2024/03/20 12:02:19;;;;;;;11.65;5.20;;;24.40;83.30;;;;;;5038549;28;20029;-66
2024/03/20 12:04:48;;;;;;;16.05;5.65;;;24.90;83.30;;;;;;5039426;28;20029;-67
2024/03/20 12:07:32;;;;;;;9.90;5.75;;;24.90;82.20;;;;;;5033379;28;20029;-67
2024/03/20 12:09:58;;;;;;;10.93;6.18;;;24.60;81.90;;;;;;5019536;28;20699;-66
2024/03/20 12:12:24;;;;;;;12.05;5.72;;;24.90;81.80;;;;;;5021997;28;20610;-66
2024/03/20 12:14:50;;;;;;;11.20;5.10;;;25.00;81.10;;;;;;5024942;28;20057;-66
2024/03/20 12:17:17;;;;;;;8.93;5.38;;;25.20;81.70;;;;;;5038808;28;20371;-66
2024/03/20 12:19:42;;;;;;;16.38;5.78;;;24.90;81.40;;;;;;5042226;28;20037;-66
2024/03/20 12:22:13;;;;;;;12.95;5.47;;;24.30;80.80;;;;;;5040495;28;20035;-66
2024/03/20 12:24:39;;;;;;;6.88;4.82;;;23.80;81.10;;;;;;5019435;28;20025;-66
2024/03/20 12:27:05;;;;;;;10.90;4.88;;;23.50;81.50;;;;;;5028573;28;20034;-66